sensor_id;sensor_type;location;lat;lon;timestamp;temperature;humidity
36458;DHT22;22480;50.546;12.292;2022-09-01T00:02:14;12.90;99.90
36458;DHT22;22480;50.546;12.292;2022-09-01T00:04:42;12.90;99.90
36458;DHT22;22480;50.546;12.292;2022-09-01T00:07:10;12.80;99.90
36458;DHT22;22480;50.546;12.292;2022-09-01T00:09:37;12.60;99.90
36458;DHT22;22480;50.546;12.292;2022-09-01T00:12:05;12.60;99.90
36458;DHT22;22480;50.546;12.292;2022-09-01T00:14:35;12.50;99.90
36458;DHT22;22480;50.546;12.292;2022-09-01T00:17:03;12.40;99.90
36458;DHT22;22480;50.546;12.292;2022-09-01T00:19:29;12.20;99.90
36458;DHT22;22480;50.546;12.292;2022-09-01T00:21:55;12.10;99.90
36458;DHT22;22480;50.546;12.292;2022-09-01T00:24:21;12.00;99.90
36458;DHT22;22480;50.546;12.292;2022-09-01T00:26:47;11.90;99.90
36458;DHT22;22480;50.546;12.292;2022-09-01T00:29:14;11.80;99.90
36458;DHT22;22480;50.546;12.292;2022-09-01T00:31:40;11.70;99.90
36458;DHT22;22480;50.546;12.292;2022-09-01T00:34:06;11.60;99.90
36458;DHT22;22480;50.546;12.292;2022-09-01T00:36:32;11.60;99.90
36458;DHT22;22480;50.546;12.292;2022-09-01T00:38:57;11.40;99.90
36458;DHT22;22480;50.546;12.292;2022-09-01T00:41:25;11.50;99.90
36458;DHT22;22480;50.546;12.292;2022-09-01T00:44:00;11.40;99.90
36458;DHT22;22480;50.546;12.292;2022-09-01T00:46:30;11.30;99.90
36458;DHT22;22480;50.546;12.292;2022-09-01T00:49:16;11.30;99.90
36458;DHT22;22480;50.546;12.292;2022-09-01T00:51:55;11.20;99.90
36458;DHT22;22480;50.546;12.292;2022-09-01T00:54:26;11.20;99.90
36458;DHT22;22480;50.546;12.292;2022-09-01T00:56:54;11.20;99.90
36458;DHT22;22480;50.546;12.292;2022-09-01T00:59:23;11.20;99.90
36458;DHT22;22480;50.546;12.292;2022-09-01T01:01:50;11.10;99.90
36458;DHT22;22480;50.546;12.292;2022-09-01T01:04:15;11.00;99.90
36458;DHT22;22480;50.546;12.292;2022-09-01T01:06:45;10.90;99.90
36458;DHT22;22480;50.546;12.292;2022-09-01T01:09:19;10.90;99.90
36458;DHT22;22480;50.546;12.292;2022-09-01T01:11:45;10.90;99.90
36458;DHT22;22480;50.546;12.292;2022-09-01T01:14:14;10.90;99.90
36458;DHT22;22480;50.546;12.292;2022-09-01T01:16:48;10.80;99.90
36458;DHT22;22480;50.546;12.292;2022-09-01T01:22:14;10.70;99.90
36458;DHT22;22480;50.546;12.292;2022-09-01T01:25:03;10.70;99.90
36458;DHT22;22480;50.546;12.292;2022-09-01T01:27:33;10.50;99.90
36458;DHT22;22480;50.546;12.292;2022-09-01T01:30:00;10.40;99.90
36458;DHT22;22480;50.546;12.292;2022-09-01T01:32:27;10.30;99.90
36458;DHT22;22480;50.546;12.292;2022-09-01T01:34:54;10.20;99.90
36458;DHT22;22480;50.546;12.292;2022-09-01T01:37:21;10.20;99.90
36458;DHT22;22480;50.546;12.292;2022-09-01T01:39:51;10.20;99.90
36458;DHT22;22480;50.546;12.292;2022-09-01T01:42:17;10.40;99.90
36458;DHT22;22480;50.546;12.292;2022-09-01T01:44:43;10.50;99.90
36458;DHT22;22480;50.546;12.292;2022-09-01T01:47:11;10.40;99.90
36458;DHT22;22480;50.546;12.292;2022-09-01T01:49:39;10.40;99.90
36458;DHT22;22480;50.546;12.292;2022-09-01T01:52:09;10.50;99.90
36458;DHT22;22480;50.546;12.292;2022-09-01T01:54:39;10.60;99.90
36458;DHT22;22480;50.546;12.292;2022-09-01T01:57:06;10.80;99.90
36458;DHT22;22480;50.546;12.292;2022-09-01T01:59:33;10.80;99.90
36458;DHT22;22480;50.546;12.292;2022-09-01T02:01:59;10.80;99.90
36458;DHT22;22480;50.546;12.292;2022-09-01T02:04:28;10.80;99.90
36458;DHT22;22480;50.546;12.292;2022-09-01T02:07:03;10.80;99.90
36458;DHT22;22480;50.546;12.292;2022-09-01T02:09:32;10.80;99.90
36458;DHT22;22480;50.546;12.292;2022-09-01T02:11:58;10.80;99.90
36458;DHT22;22480;50.546;12.292;2022-09-01T02:14:24;11.00;99.90
36458;DHT22;22480;50.546;12.292;2022-09-01T02:16:50;11.20;99.90
36458;DHT22;22480;50.546;12.292;2022-09-01T02:19:20;11.20;99.90
36458;DHT22;22480;50.546;12.292;2022-09-01T02:21:46;11.20;99.90
36458;DHT22;22480;50.546;12.292;2022-09-01T02:24:17;11.10;99.90
36458;DHT22;22480;50.546;12.292;2022-09-01T02:26:43;11.00;99.90
36458;DHT22;22480;50.546;12.292;2022-09-01T02:29:15;10.90;99.90
36458;DHT22;22480;50.546;12.292;2022-09-01T02:31:49;10.80;99.90
36458;DHT22;22480;50.546;12.292;2022-09-01T02:34:16;10.80;99.90
36458;DHT22;22480;50.546;12.292;2022-09-01T02:36:48;10.70;99.90
36458;DHT22;22480;50.546;12.292;2022-09-01T02:39:22;10.60;99.90
36458;DHT22;22480;50.546;12.292;2022-09-01T02:41:49;10.60;99.90
36458;DHT22;22480;50.546;12.292;2022-09-01T02:44:19;10.60;99.90
36458;DHT22;22480;50.546;12.292;2022-09-01T02:46:47;10.60;99.90
36458;DHT22;22480;50.546;12.292;2022-09-01T02:49:16;10.80;99.90
36458;DHT22;22480;50.546;12.292;2022-09-01T02:51:47;10.70;99.90
36458;DHT22;22480;50.546;12.292;2022-09-01T02:54:14;10.50;99.90
36458;DHT22;22480;50.546;12.292;2022-09-01T02:56:44;10.40;99.90
36458;DHT22;22480;50.546;12.292;2022-09-01T02:59:16;10.30;99.90
36458;DHT22;22480;50.546;12.292;2022-09-01T03:01:42;10.20;99.90
36458;DHT22;22480;50.546;12.292;2022-09-01T03:04:12;10.20;99.90
36458;DHT22;22480;50.546;12.292;2022-09-01T03:06:38;10.30;99.90
36458;DHT22;22480;50.546;12.292;2022-09-01T03:09:10;10.20;99.90
36458;DHT22;22480;50.546;12.292;2022-09-01T03:11:42;10.20;99.90
36458;DHT22;22480;50.546;12.292;2022-09-01T03:14:08;10.10;99.90
36458;DHT22;22480;50.546;12.292;2022-09-01T03:16:35;10.00;99.90
36458;DHT22;22480;50.546;12.292;2022-09-01T03:19:02;9.90;99.90
36458;DHT22;22480;50.546;12.292;2022-09-01T03:21:29;9.90;99.90
36458;DHT22;22480;50.546;12.292;2022-09-01T03:23:56;9.90;99.90
36458;DHT22;22480;50.546;12.292;2022-09-01T03:26:23;9.80;99.90
36458;DHT22;22480;50.546;12.292;2022-09-01T03:28:50;9.80;99.90
36458;DHT22;22480;50.546;12.292;2022-09-01T03:31:18;9.80;99.90
36458;DHT22;22480;50.546;12.292;2022-09-01T03:33:45;9.80;99.90
36458;DHT22;22480;50.546;12.292;2022-09-01T03:36:19;9.90;99.90
36458;DHT22;22480;50.546;12.292;2022-09-01T03:38:47;9.90;99.90
36458;DHT22;22480;50.546;12.292;2022-09-01T03:41:16;9.90;99.90
36458;DHT22;22480;50.546;12.292;2022-09-01T03:43:43;9.90;99.90
36458;DHT22;22480;50.546;12.292;2022-09-01T03:46:10;9.90;99.90
36458;DHT22;22480;50.546;12.292;2022-09-01T03:48:41;9.90;99.90
36458;DHT22;22480;50.546;12.292;2022-09-01T03:51:07;9.90;99.90
36458;DHT22;22480;50.546;12.292;2022-09-01T03:53:37;9.90;99.90
36458;DHT22;22480;50.546;12.292;2022-09-01T03:56:05;9.90;99.90
36458;DHT22;22480;50.546;12.292;2022-09-01T03:58:32;9.80;99.90
36458;DHT22;22480;50.546;12.292;2022-09-01T04:00:59;9.80;99.90
36458;DHT22;22480;50.546;12.292;2022-09-01T04:03:31;9.80;99.90
36458;DHT22;22480;50.546;12.292;2022-09-01T04:06:01;9.80;99.90
36458;DHT22;22480;50.546;12.292;2022-09-01T04:08:27;9.80;99.90
36458;DHT22;22480;50.546;12.292;2022-09-01T04:11:02;9.80;99.90
36458;DHT22;22480;50.546;12.292;2022-09-01T04:13:35;9.80;99.90
36458;DHT22;22480;50.546;12.292;2022-09-01T04:16:03;9.80;99.90
36458;DHT22;22480;50.546;12.292;2022-09-01T04:18:35;9.80;99.90
36458;DHT22;22480;50.546;12.292;2022-09-01T04:21:03;9.90;99.90
36458;DHT22;22480;50.546;12.292;2022-09-01T04:23:33;9.90;99.90
36458;DHT22;22480;50.546;12.292;2022-09-01T04:26:10;9.90;99.90
36458;DHT22;22480;50.546;12.292;2022-09-01T04:28:42;9.90;99.90
36458;DHT22;22480;50.546;12.292;2022-09-01T04:31:11;9.90;99.90
36458;DHT22;22480;50.546;12.292;2022-09-01T04:33:45;9.90;99.90
36458;DHT22;22480;50.546;12.292;2022-09-01T04:36:19;9.90;99.90
36458;DHT22;22480;50.546;12.292;2022-09-01T04:38:54;10.10;99.90
36458;DHT22;22480;50.546;12.292;2022-09-01T04:41:26;10.20;99.90
36458;DHT22;22480;50.546;12.292;2022-09-01T04:43:57;10.30;99.90
36458;DHT22;22480;50.546;12.292;2022-09-01T04:46:25;10.60;99.90
36458;DHT22;22480;50.546;12.292;2022-09-01T04:48:54;10.70;99.90
36458;DHT22;22480;50.546;12.292;2022-09-01T04:51:20;10.70;99.90
36458;DHT22;22480;50.546;12.292;2022-09-01T04:53:50;10.70;99.90
36458;DHT22;22480;50.546;12.292;2022-09-01T04:56:18;10.70;99.90
36458;DHT22;22480;50.546;12.292;2022-09-01T04:58:51;10.60;99.90
36458;DHT22;22480;50.546;12.292;2022-09-01T05:01:23;10.60;99.90
36458;DHT22;22480;50.546;12.292;2022-09-01T05:03:50;10.60;99.90
36458;DHT22;22480;50.546;12.292;2022-09-01T05:06:35;10.60;99.90
36458;DHT22;22480;50.546;12.292;2022-09-01T05:09:04;10.60;99.90
36458;DHT22;22480;50.546;12.292;2022-09-01T05:11:45;10.70;99.90
36458;DHT22;22480;50.546;12.292;2022-09-01T05:14:22;10.80;99.90
36458;DHT22;22480;50.546;12.292;2022-09-01T05:16:48;10.80;99.90
36458;DHT22;22480;50.546;12.292;2022-09-01T05:19:16;10.90;99.90
36458;DHT22;22480;50.546;12.292;2022-09-01T05:21:46;11.00;99.90
36458;DHT22;22480;50.546;12.292;2022-09-01T05:24:18;11.10;99.90
36458;DHT22;22480;50.546;12.292;2022-09-01T05:26:47;11.30;99.90
36458;DHT22;22480;50.546;12.292;2022-09-01T05:29:15;11.30;99.90
36458;DHT22;22480;50.546;12.292;2022-09-01T05:31:46;11.40;99.90
36458;DHT22;22480;50.546;12.292;2022-09-01T05:34:14;11.50;99.90
36458;DHT22;22480;50.546;12.292;2022-09-01T05:36:45;11.90;99.90
36458;DHT22;22480;50.546;12.292;2022-09-01T05:39:15;12.30;99.90
36458;DHT22;22480;50.546;12.292;2022-09-01T05:41:41;12.90;99.90
36458;DHT22;22480;50.546;12.292;2022-09-01T05:44:08;13.40;99.90
36458;DHT22;22480;50.546;12.292;2022-09-01T05:46:36;13.70;99.90
36458;DHT22;22480;50.546;12.292;2022-09-01T05:49:05;13.70;99.90
36458;DHT22;22480;50.546;12.292;2022-09-01T05:51:33;13.80;99.90
36458;DHT22;22480;50.546;12.292;2022-09-01T05:54:01;14.10;99.90
36458;DHT22;22480;50.546;12.292;2022-09-01T05:56:30;14.40;99.90
36458;DHT22;22480;50.546;12.292;2022-09-01T05:58:59;14.50;99.90
36458;DHT22;22480;50.546;12.292;2022-09-01T06:01:27;14.50;99.90
36458;DHT22;22480;50.546;12.292;2022-09-01T06:03:56;14.40;99.90
36458;DHT22;22480;50.546;12.292;2022-09-01T06:06:29;14.30;99.90
36458;DHT22;22480;50.546;12.292;2022-09-01T06:08:55;14.20;99.90
36458;DHT22;22480;50.546;12.292;2022-09-01T06:11:25;14.10;99.90
36458;DHT22;22480;50.546;12.292;2022-09-01T06:13:52;14.20;99.90
36458;DHT22;22480;50.546;12.292;2022-09-01T06:16:21;14.30;99.90
36458;DHT22;22480;50.546;12.292;2022-09-01T06:18:52;14.20;99.90
36458;DHT22;22480;50.546;12.292;2022-09-01T06:21:20;14.30;99.90
36458;DHT22;22480;50.546;12.292;2022-09-01T06:23:50;14.50;99.90
36458;DHT22;22480;50.546;12.292;2022-09-01T06:26:30;14.80;99.90
36458;DHT22;22480;50.546;12.292;2022-09-01T06:29:02;15.30;99.90
36458;DHT22;22480;50.546;12.292;2022-09-01T06:31:30;15.50;99.90
36458;DHT22;22480;50.546;12.292;2022-09-01T06:34:06;15.80;99.90
36458;DHT22;22480;50.546;12.292;2022-09-01T06:36:35;16.00;99.90
36458;DHT22;22480;50.546;12.292;2022-09-01T06:39:02;15.80;99.90
36458;DHT22;22480;50.546;12.292;2022-09-01T06:41:29;15.90;99.90
36458;DHT22;22480;50.546;12.292;2022-09-01T06:43:56;15.90;99.90
36458;DHT22;22480;50.546;12.292;2022-09-01T06:46:23;16.10;99.90
36458;DHT22;22480;50.546;12.292;2022-09-01T06:48:52;16.10;99.90
36458;DHT22;22480;50.546;12.292;2022-09-01T06:51:20;16.20;99.90
36458;DHT22;22480;50.546;12.292;2022-09-01T06:53:50;16.20;99.90
36458;DHT22;22480;50.546;12.292;2022-09-01T06:56:22;16.50;99.90
36458;DHT22;22480;50.546;12.292;2022-09-01T06:58:52;16.70;99.90
36458;DHT22;22480;50.546;12.292;2022-09-01T07:01:19;16.80;99.90
36458;DHT22;22480;50.546;12.292;2022-09-01T07:03:50;16.90;99.90
36458;DHT22;22480;50.546;12.292;2022-09-01T07:06:24;16.90;99.90
36458;DHT22;22480;50.546;12.292;2022-09-01T07:09:12;16.70;99.90
36458;DHT22;22480;50.546;12.292;2022-09-01T07:11:40;16.80;99.90
36458;DHT22;22480;50.546;12.292;2022-09-01T07:14:05;16.70;99.90
36458;DHT22;22480;50.546;12.292;2022-09-01T07:16:35;16.70;99.90
36458;DHT22;22480;50.546;12.292;2022-09-01T07:19:06;16.60;99.90
36458;DHT22;22480;50.546;12.292;2022-09-01T07:21:44;16.80;99.90
36458;DHT22;22480;50.546;12.292;2022-09-01T07:24:12;17.20;99.90
36458;DHT22;22480;50.546;12.292;2022-09-01T07:27:00;17.20;99.90
36458;DHT22;22480;50.546;12.292;2022-09-01T07:29:26;17.30;99.90
36458;DHT22;22480;50.546;12.292;2022-09-01T07:31:53;17.50;99.90
36458;DHT22;22480;50.546;12.292;2022-09-01T07:34:21;17.70;99.90
36458;DHT22;22480;50.546;12.292;2022-09-01T07:36:47;17.80;99.90
36458;DHT22;22480;50.546;12.292;2022-09-01T07:39:14;17.80;99.90
36458;DHT22;22480;50.546;12.292;2022-09-01T07:41:48;18.00;99.90
36458;DHT22;22480;50.546;12.292;2022-09-01T07:44:32;18.20;99.90
36458;DHT22;22480;50.546;12.292;2022-09-01T07:47:22;18.20;99.90
36458;DHT22;22480;50.546;12.292;2022-09-01T07:49:48;18.30;99.90
36458;DHT22;22480;50.546;12.292;2022-09-01T07:52:13;18.40;99.90
36458;DHT22;22480;50.546;12.292;2022-09-01T07:54:41;18.50;99.90
36458;DHT22;22480;50.546;12.292;2022-09-01T07:57:07;18.60;99.90
36458;DHT22;22480;50.546;12.292;2022-09-01T07:59:34;18.80;99.90
36458;DHT22;22480;50.546;12.292;2022-09-01T08:02:06;18.90;99.90
36458;DHT22;22480;50.546;12.292;2022-09-01T08:04:32;19.20;99.90
36458;DHT22;22480;50.546;12.292;2022-09-01T08:06:59;19.20;99.90
36458;DHT22;22480;50.546;12.292;2022-09-01T08:09:26;19.40;99.90
36458;DHT22;22480;50.546;12.292;2022-09-01T08:11:52;19.70;99.90
36458;DHT22;22480;50.546;12.292;2022-09-01T08:14:18;19.60;99.90
36458;DHT22;22480;50.546;12.292;2022-09-01T08:16:44;19.50;99.90
36458;DHT22;22480;50.546;12.292;2022-09-01T08:19:10;19.50;99.90
36458;DHT22;22480;50.546;12.292;2022-09-01T08:21:56;19.20;99.90
36458;DHT22;22480;50.546;12.292;2022-09-01T08:24:30;19.40;99.90
36458;DHT22;22480;50.546;12.292;2022-09-01T08:26:56;19.70;99.90
36458;DHT22;22480;50.546;12.292;2022-09-01T08:29:22;20.10;99.90
36458;DHT22;22480;50.546;12.292;2022-09-01T08:31:48;20.30;99.90
36458;DHT22;22480;50.546;12.292;2022-09-01T08:34:14;20.40;99.90
36458;DHT22;22480;50.546;12.292;2022-09-01T08:36:41;20.40;99.90
36458;DHT22;22480;50.546;12.292;2022-09-01T08:39:07;20.60;99.90
36458;DHT22;22480;50.546;12.292;2022-09-01T08:41:43;20.70;99.80
36458;DHT22;22480;50.546;12.292;2022-09-01T08:47:00;20.50;99.70
36458;DHT22;22480;50.546;12.292;2022-09-01T08:49:28;20.70;99.00
36458;DHT22;22480;50.546;12.292;2022-09-01T08:52:35;20.50;97.50
36458;DHT22;22480;50.546;12.292;2022-09-01T08:55:15;20.70;98.10
36458;DHT22;22480;50.546;12.292;2022-09-01T08:57:45;20.90;97.20
36458;DHT22;22480;50.546;12.292;2022-09-01T09:00:38;21.10;97.20
36458;DHT22;22480;50.546;12.292;2022-09-01T09:09:03;21.20;94.50
36458;DHT22;22480;50.546;12.292;2022-09-01T09:14:45;20.70;94.70
36458;DHT22;22480;50.546;12.292;2022-09-01T09:17:17;20.90;94.10
36458;DHT22;22480;50.546;12.292;2022-09-01T09:19:44;21.50;92.80
36458;DHT22;22480;50.546;12.292;2022-09-01T09:22:17;21.80;91.50
36458;DHT22;22480;50.546;12.292;2022-09-01T09:30:04;21.50;90.50
36458;DHT22;22480;50.546;12.292;2022-09-01T09:32:50;21.60;91.10
36458;DHT22;22480;50.546;12.292;2022-09-01T09:35:24;21.90;86.70
36458;DHT22;22480;50.546;12.292;2022-09-01T09:37:51;21.70;86.80
36458;DHT22;22480;50.546;12.292;2022-09-01T09:40:23;21.90;84.10
36458;DHT22;22480;50.546;12.292;2022-09-01T09:45:30;22.70;85.90
36458;DHT22;22480;50.546;12.292;2022-09-01T09:47:58;23.10;83.40
36458;DHT22;22480;50.546;12.292;2022-09-01T09:50:32;23.30;82.30
36458;DHT22;22480;50.546;12.292;2022-09-01T09:53:24;23.30;73.90
36458;DHT22;22480;50.546;12.292;2022-09-01T09:58:39;23.50;73.00
36458;DHT22;22480;50.546;12.292;2022-09-01T10:03:47;23.30;67.00
36458;DHT22;22480;50.546;12.292;2022-09-01T10:06:35;23.50;67.40
36458;DHT22;22480;50.546;12.292;2022-09-01T10:09:08;23.60;65.50
36458;DHT22;22480;50.546;12.292;2022-09-01T10:11:40;23.80;63.60
36458;DHT22;22480;50.546;12.292;2022-09-01T10:14:15;24.30;65.70
36458;DHT22;22480;50.546;12.292;2022-09-01T10:16:42;25.20;61.80
36458;DHT22;22480;50.546;12.292;2022-09-01T10:19:11;25.50;59.70
36458;DHT22;22480;50.546;12.292;2022-09-01T10:21:39;25.60;57.40
36458;DHT22;22480;50.546;12.292;2022-09-01T10:24:19;25.90;59.00
36458;DHT22;22480;50.546;12.292;2022-09-01T10:26:53;26.40;57.80
36458;DHT22;22480;50.546;12.292;2022-09-01T10:29:31;27.40;57.70
36458;DHT22;22480;50.546;12.292;2022-09-01T10:31:59;27.80;54.20
36458;DHT22;22480;50.546;12.292;2022-09-01T10:34:31;27.50;51.00
36458;DHT22;22480;50.546;12.292;2022-09-01T10:36:58;27.60;52.30
36458;DHT22;22480;50.546;12.292;2022-09-01T10:39:24;27.20;50.30
36458;DHT22;22480;50.546;12.292;2022-09-01T10:41:55;27.30;52.10
36458;DHT22;22480;50.546;12.292;2022-09-01T10:44:24;26.80;53.10
36458;DHT22;22480;50.546;12.292;2022-09-01T10:46:55;27.50;52.70
36458;DHT22;22480;50.546;12.292;2022-09-01T10:51:56;26.50;52.30
36458;DHT22;22480;50.546;12.292;2022-09-01T11:00:41;26.30;55.10
36458;DHT22;22480;50.546;12.292;2022-09-01T11:06:02;27.40;55.20
36458;DHT22;22480;50.546;12.292;2022-09-01T11:13:57;25.90;57.80
36458;DHT22;22480;50.546;12.292;2022-09-01T11:16:35;26.10;57.20
36458;DHT22;22480;50.546;12.292;2022-09-01T11:19:34;26.00;58.00
36458;DHT22;22480;50.546;12.292;2022-09-01T11:27:07;26.40;57.80
36458;DHT22;22480;50.546;12.292;2022-09-01T11:29:56;26.10;59.90
36458;DHT22;22480;50.546;12.292;2022-09-01T11:32:34;27.20;59.40
36458;DHT22;22480;50.546;12.292;2022-09-01T11:35:12;26.60;55.00
36458;DHT22;22480;50.546;12.292;2022-09-01T11:37:39;25.20;57.20
36458;DHT22;22480;50.546;12.292;2022-09-01T11:40:06;23.80;61.30
36458;DHT22;22480;50.546;12.292;2022-09-01T11:42:41;23.60;64.80
36458;DHT22;22480;50.546;12.292;2022-09-01T11:45:16;23.50;62.50
36458;DHT22;22480;50.546;12.292;2022-09-01T11:47:47;23.50;63.70
36458;DHT22;22480;50.546;12.292;2022-09-01T11:50:21;23.00;62.20
36458;DHT22;22480;50.546;12.292;2022-09-01T11:52:53;22.70;65.90
36458;DHT22;22480;50.546;12.292;2022-09-01T11:57:56;25.00;58.00
36458;DHT22;22480;50.546;12.292;2022-09-01T12:00:49;25.90;60.30
36458;DHT22;22480;50.546;12.292;2022-09-01T12:03:21;26.50;56.30
36458;DHT22;22480;50.546;12.292;2022-09-01T12:05:52;27.40;58.30
36458;DHT22;22480;50.546;12.292;2022-09-01T12:08:25;27.70;52.30
36458;DHT22;22480;50.546;12.292;2022-09-01T12:13:31;28.30;52.90
36458;DHT22;22480;50.546;12.292;2022-09-01T12:16:03;29.10;52.30
36458;DHT22;22480;50.546;12.292;2022-09-01T12:18:32;28.90;52.00
36458;DHT22;22480;50.546;12.292;2022-09-01T12:21:02;29.40;52.10
36458;DHT22;22480;50.546;12.292;2022-09-01T12:23:31;30.40;51.80
36458;DHT22;22480;50.546;12.292;2022-09-01T12:26:07;31.00;51.40
36458;DHT22;22480;50.546;12.292;2022-09-01T12:28:34;31.60;48.10
36458;DHT22;22480;50.546;12.292;2022-09-01T12:31:05;31.40;47.20
36458;DHT22;22480;50.546;12.292;2022-09-01T12:33:32;29.90;49.20
36458;DHT22;22480;50.546;12.292;2022-09-01T12:38:42;27.60;50.80
36458;DHT22;22480;50.546;12.292;2022-09-01T12:44:28;28.70;51.70
36458;DHT22;22480;50.546;12.292;2022-09-01T12:46:54;29.70;49.50
36458;DHT22;22480;50.546;12.292;2022-09-01T12:54:35;28.70;50.70
36458;DHT22;22480;50.546;12.292;2022-09-01T12:57:01;27.70;52.00
36458;DHT22;22480;50.546;12.292;2022-09-01T12:59:27;28.00;51.20
36458;DHT22;22480;50.546;12.292;2022-09-01T13:01:52;29.20;50.80
36458;DHT22;22480;50.546;12.292;2022-09-01T13:04:25;30.20;49.90
36458;DHT22;22480;50.546;12.292;2022-09-01T13:07:01;31.30;46.00
36458;DHT22;22480;50.546;12.292;2022-09-01T13:09:27;31.70;46.80
36458;DHT22;22480;50.546;12.292;2022-09-01T13:11:53;31.00;46.60
36458;DHT22;22480;50.546;12.292;2022-09-01T13:14:33;30.40;48.40
36458;DHT22;22480;50.546;12.292;2022-09-01T13:16:58;28.60;49.30
36458;DHT22;22480;50.546;12.292;2022-09-01T13:19:24;26.80;50.50
36458;DHT22;22480;50.546;12.292;2022-09-01T13:21:50;25.70;53.00
36458;DHT22;22480;50.546;12.292;2022-09-01T13:24:15;24.60;54.30
36458;DHT22;22480;50.546;12.292;2022-09-01T13:26:42;24.20;56.90
36458;DHT22;22480;50.546;12.292;2022-09-01T13:29:10;23.80;56.00
36458;DHT22;22480;50.546;12.292;2022-09-01T13:31:36;23.30;57.40
36458;DHT22;22480;50.546;12.292;2022-09-01T13:34:02;22.70;57.90
36458;DHT22;22480;50.546;12.292;2022-09-01T13:36:27;22.80;59.70
36458;DHT22;22480;50.546;12.292;2022-09-01T13:38:53;22.80;58.70
36458;DHT22;22480;50.546;12.292;2022-09-01T13:41:18;22.70;59.60
36458;DHT22;22480;50.546;12.292;2022-09-01T13:43:44;22.70;58.70
36458;DHT22;22480;50.546;12.292;2022-09-01T13:46:11;22.60;59.90
36458;DHT22;22480;50.546;12.292;2022-09-01T13:48:37;22.80;58.20
36458;DHT22;22480;50.546;12.292;2022-09-01T13:51:03;23.00;58.40
36458;DHT22;22480;50.546;12.292;2022-09-01T13:53:29;23.00;58.10
36458;DHT22;22480;50.546;12.292;2022-09-01T13:55:54;23.40;59.80
36458;DHT22;22480;50.546;12.292;2022-09-01T13:58:20;23.60;56.10
36458;DHT22;22480;50.546;12.292;2022-09-01T14:00:47;23.80;57.20
36458;DHT22;22480;50.546;12.292;2022-09-01T14:03:20;24.00;56.60
36458;DHT22;22480;50.546;12.292;2022-09-01T14:05:47;23.80;55.90
36458;DHT22;22480;50.546;12.292;2022-09-01T14:08:14;23.80;56.00
36458;DHT22;22480;50.546;12.292;2022-09-01T14:10:43;23.80;59.90
36458;DHT22;22480;50.546;12.292;2022-09-01T14:13:10;23.70;57.50
36458;DHT22;22480;50.546;12.292;2022-09-01T14:15:36;24.00;55.50
36458;DHT22;22480;50.546;12.292;2022-09-01T14:18:03;25.20;53.60
36458;DHT22;22480;50.546;12.292;2022-09-01T14:20:35;26.70;53.50
36458;DHT22;22480;50.546;12.292;2022-09-01T14:23:05;28.10;53.20
36458;DHT22;22480;50.546;12.292;2022-09-01T14:25:31;28.80;49.20
36458;DHT22;22480;50.546;12.292;2022-09-01T14:27:58;27.90;50.20
36458;DHT22;22480;50.546;12.292;2022-09-01T14:30:28;26.90;52.10
36458;DHT22;22480;50.546;12.292;2022-09-01T14:32:54;26.00;53.70
36458;DHT22;22480;50.546;12.292;2022-09-01T14:35:21;25.60;53.20
36458;DHT22;22480;50.546;12.292;2022-09-01T14:37:50;26.40;54.40
36458;DHT22;22480;50.546;12.292;2022-09-01T14:40:17;26.70;51.60
36458;DHT22;22480;50.546;12.292;2022-09-01T14:42:47;28.10;52.10
36458;DHT22;22480;50.546;12.292;2022-09-01T14:45:15;29.30;49.70
36458;DHT22;22480;50.546;12.292;2022-09-01T14:47:44;28.80;50.20
36458;DHT22;22480;50.546;12.292;2022-09-01T14:50:10;28.40;50.20
36458;DHT22;22480;50.546;12.292;2022-09-01T14:52:36;27.20;50.80
36458;DHT22;22480;50.546;12.292;2022-09-01T14:55:03;26.50;52.60
36458;DHT22;22480;50.546;12.292;2022-09-01T14:57:29;25.90;52.10
36458;DHT22;22480;50.546;12.292;2022-09-01T14:59:57;25.00;54.20
36458;DHT22;22480;50.546;12.292;2022-09-01T15:02:23;24.40;54.90
36458;DHT22;22480;50.546;12.292;2022-09-01T15:04:50;23.80;56.00
36458;DHT22;22480;50.546;12.292;2022-09-01T15:07:17;23.40;56.30
36458;DHT22;22480;50.546;12.292;2022-09-01T15:09:43;22.80;56.50
36458;DHT22;22480;50.546;12.292;2022-09-01T15:12:08;22.50;57.30
36458;DHT22;22480;50.546;12.292;2022-09-01T15:14:35;22.30;59.00
36458;DHT22;22480;50.546;12.292;2022-09-01T15:17:02;22.20;59.50
36458;DHT22;22480;50.546;12.292;2022-09-01T15:19:28;22.40;59.70
36458;DHT22;22480;50.546;12.292;2022-09-01T15:21:53;23.30;60.20
36458;DHT22;22480;50.546;12.292;2022-09-01T15:24:19;24.40;56.90
36458;DHT22;22480;50.546;12.292;2022-09-01T15:26:45;25.20;55.60
36458;DHT22;22480;50.546;12.292;2022-09-01T15:29:12;26.00;52.30
36458;DHT22;22480;50.546;12.292;2022-09-01T15:31:41;26.60;50.90
36458;DHT22;22480;50.546;12.292;2022-09-01T15:34:08;26.50;52.40
36458;DHT22;22480;50.546;12.292;2022-09-01T15:36:36;26.40;51.10
36458;DHT22;22480;50.546;12.292;2022-09-01T15:39:05;26.70;51.80
36458;DHT22;22480;50.546;12.292;2022-09-01T15:41:31;27.30;51.50
36458;DHT22;22480;50.546;12.292;2022-09-01T15:43:59;27.60;49.70
36458;DHT22;22480;50.546;12.292;2022-09-01T15:46:25;27.10;50.30
36458;DHT22;22480;50.546;12.292;2022-09-01T15:49:03;26.60;52.10
36458;DHT22;22480;50.546;12.292;2022-09-01T15:51:32;26.30;51.80
36458;DHT22;22480;50.546;12.292;2022-09-01T15:54:14;26.30;52.10
36458;DHT22;22480;50.546;12.292;2022-09-01T15:56:40;26.30;51.50
36458;DHT22;22480;50.546;12.292;2022-09-01T15:59:07;26.50;52.20
36458;DHT22;22480;50.546;12.292;2022-09-01T16:01:39;26.70;51.00
36458;DHT22;22480;50.546;12.292;2022-09-01T16:04:07;27.30;49.60
36458;DHT22;22480;50.546;12.292;2022-09-01T16:06:34;27.40;50.60
36458;DHT22;22480;50.546;12.292;2022-09-01T16:09:00;28.10;51.00
36458;DHT22;22480;50.546;12.292;2022-09-01T16:11:26;28.30;50.50
36458;DHT22;22480;50.546;12.292;2022-09-01T16:13:52;28.70;49.40
36458;DHT22;22480;50.546;12.292;2022-09-01T16:16:23;28.80;50.30
36458;DHT22;22480;50.546;12.292;2022-09-01T16:21:50;29.70;49.30
36458;DHT22;22480;50.546;12.292;2022-09-01T16:24:17;29.80;48.60
36458;DHT22;22480;50.546;12.292;2022-09-01T16:26:46;29.60;48.50
36458;DHT22;22480;50.546;12.292;2022-09-01T16:29:39;28.70;48.70
36458;DHT22;22480;50.546;12.292;2022-09-01T16:32:06;28.10;48.40
36458;DHT22;22480;50.546;12.292;2022-09-01T16:34:32;28.00;51.00
36458;DHT22;22480;50.546;12.292;2022-09-01T16:39:51;27.10;48.90
36458;DHT22;22480;50.546;12.292;2022-09-01T16:47:39;27.40;53.10
36458;DHT22;22480;50.546;12.292;2022-09-01T16:56:04;27.50;51.00
36458;DHT22;22480;50.546;12.292;2022-09-01T17:01:47;27.00;53.40